sensor_id;sensor_type;location;lat;lon;timestamp;P1;durP1;ratioP1;P2;durP2;ratioP2
54517;SDS011;40423;53.176;6.002;2022-11-15T00:00:19;27.83;;;19.60;;
54517;SDS011;40423;53.176;6.002;2022-11-15T00:02:44;26.88;;;18.85;;
54517;SDS011;40423;53.176;6.002;2022-11-15T00:05:10;30.13;;;19.23;;
54517;SDS011;40423;53.176;6.002;2022-11-15T00:07:37;28.25;;;20.45;;
54517;SDS011;40423;53.176;6.002;2022-11-15T00:10:03;30.15;;;20.65;;
54517;SDS011;40423;53.176;6.002;2022-11-15T00:12:29;32.15;;;21.58;;
54517;SDS011;40423;53.176;6.002;2022-11-15T00:14:54;26.35;;;19.23;;
54517;SDS011;40423;53.176;6.002;2022-11-15T00:17:20;28.58;;;19.60;;
54517;SDS011;40423;53.176;6.002;2022-11-15T00:19:46;29.88;;;20.33;;
54517;SDS011;40423;53.176;6.002;2022-11-15T00:22:11;29.48;;;20.17;;
54517;SDS011;40423;53.176;6.002;2022-11-15T00:24:37;32.90;;;21.35;;
54517;SDS011;40423;53.176;6.002;2022-11-15T00:27:03;31.58;;;20.45;;
54517;SDS011;40423;53.176;6.002;2022-11-15T00:29:28;32.55;;;21.48;;
54517;SDS011;40423;53.176;6.002;2022-11-15T00:31:54;30.30;;;20.67;;
54517;SDS011;40423;53.176;6.002;2022-11-15T00:34:20;32.38;;;21.40;;
54517;SDS011;40423;53.176;6.002;2022-11-15T00:36:47;29.52;;;20.38;;
54517;SDS011;40423;53.176;6.002;2022-11-15T00:39:12;28.48;;;19.33;;
54517;SDS011;40423;53.176;6.002;2022-11-15T00:41:38;33.47;;;21.63;;
54517;SDS011;40423;53.176;6.002;2022-11-15T00:44:03;28.20;;;19.17;;
54517;SDS011;40423;53.176;6.002;2022-11-15T00:46:29;34.83;;;21.85;;
54517;SDS011;40423;53.176;6.002;2022-11-15T00:48:55;30.92;;;20.52;;
54517;SDS011;40423;53.176;6.002;2022-11-15T00:51:20;29.52;;;20.48;;
54517;SDS011;40423;53.176;6.002;2022-11-15T00:53:46;30.65;;;20.55;;
54517;SDS011;40423;53.176;6.002;2022-11-15T00:56:12;29.20;;;19.40;;
54517;SDS011;40423;53.176;6.002;2022-11-15T00:58:37;30.63;;;19.55;;
54517;SDS011;40423;53.176;6.002;2022-11-15T01:01:07;30.58;;;20.75;;
54517;SDS011;40423;53.176;6.002;2022-11-15T01:03:35;30.90;;;21.30;;
54517;SDS011;40423;53.176;6.002;2022-11-15T01:06:01;26.42;;;19.05;;
54517;SDS011;40423;53.176;6.002;2022-11-15T01:08:27;29.08;;;21.27;;
54517;SDS011;40423;53.176;6.002;2022-11-15T01:10:53;29.35;;;20.75;;
54517;SDS011;40423;53.176;6.002;2022-11-15T01:13:18;28.67;;;19.95;;
54517;SDS011;40423;53.176;6.002;2022-11-15T01:15:44;28.10;;;20.45;;
54517;SDS011;40423;53.176;6.002;2022-11-15T01:18:10;29.90;;;20.65;;
54517;SDS011;40423;53.176;6.002;2022-11-15T01:20:42;29.60;;;20.58;;
54517;SDS011;40423;53.176;6.002;2022-11-15T01:23:08;31.02;;;21.30;;
54517;SDS011;40423;53.176;6.002;2022-11-15T01:25:34;28.83;;;21.67;;
54517;SDS011;40423;53.176;6.002;2022-11-15T01:28:00;28.33;;;22.02;;
54517;SDS011;40423;53.176;6.002;2022-11-15T01:30:25;31.98;;;22.52;;
54517;SDS011;40423;53.176;6.002;2022-11-15T01:32:51;31.73;;;22.27;;
54517;SDS011;40423;53.176;6.002;2022-11-15T01:35:17;26.92;;;20.67;;
54517;SDS011;40423;53.176;6.002;2022-11-15T01:37:42;34.38;;;23.10;;
54517;SDS011;40423;53.176;6.002;2022-11-15T01:40:08;32.90;;;22.90;;
54517;SDS011;40423;53.176;6.002;2022-11-15T01:42:34;35.35;;;23.63;;
54517;SDS011;40423;53.176;6.002;2022-11-15T01:45:00;32.08;;;23.30;;
54517;SDS011;40423;53.176;6.002;2022-11-15T01:49:55;32.08;;;23.05;;
54517;SDS011;40423;53.176;6.002;2022-11-15T01:52:22;33.72;;;23.50;;
54517;SDS011;40423;53.176;6.002;2022-11-15T01:54:53;34.58;;;23.02;;
54517;SDS011;40423;53.176;6.002;2022-11-15T01:57:33;32.92;;;23.33;;
54517;SDS011;40423;53.176;6.002;2022-11-15T02:00:00;38.97;;;24.05;;
54517;SDS011;40423;53.176;6.002;2022-11-15T02:02:26;35.25;;;23.52;;
54517;SDS011;40423;53.176;6.002;2022-11-15T02:04:51;34.38;;;23.73;;
54517;SDS011;40423;53.176;6.002;2022-11-15T02:07:18;35.17;;;24.83;;
54517;SDS011;40423;53.176;6.002;2022-11-15T02:09:46;34.97;;;24.08;;
54517;SDS011;40423;53.176;6.002;2022-11-15T02:12:13;39.58;;;24.48;;
54517;SDS011;40423;53.176;6.002;2022-11-15T02:14:41;37.80;;;24.00;;
54517;SDS011;40423;53.176;6.002;2022-11-15T02:17:18;37.30;;;22.38;;
54517;SDS011;40423;53.176;6.002;2022-11-15T02:25:39;32.58;;;21.70;;
54517;SDS011;40423;53.176;6.002;2022-11-15T02:33:59;34.83;;;21.83;;
54517;SDS011;40423;53.176;6.002;2022-11-15T02:36:44;31.67;;;19.58;;
54517;SDS011;40423;53.176;6.002;2022-11-15T02:39:40;36.25;;;21.27;;
54517;SDS011;40423;53.176;6.002;2022-11-15T02:42:19;31.10;;;19.85;;
54517;SDS011;40423;53.176;6.002;2022-11-15T02:45:09;35.03;;;21.38;;
54517;SDS011;40423;53.176;6.002;2022-11-15T02:47:41;30.88;;;20.75;;
54517;SDS011;40423;53.176;6.002;2022-11-15T02:50:12;32.67;;;21.05;;
54517;SDS011;40423;53.176;6.002;2022-11-15T02:52:41;36.13;;;20.98;;
54517;SDS011;40423;53.176;6.002;2022-11-15T03:00:54;34.35;;;22.27;;
54517;SDS011;40423;53.176;6.002;2022-11-15T03:03:40;36.90;;;22.38;;
54517;SDS011;40423;53.176;6.002;2022-11-15T03:06:15;36.33;;;22.10;;
54517;SDS011;40423;53.176;6.002;2022-11-15T03:11:38;41.25;;;24.13;;
54517;SDS011;40423;53.176;6.002;2022-11-15T03:19:47;40.90;;;22.90;;
54517;SDS011;40423;53.176;6.002;2022-11-15T03:22:16;43.65;;;24.33;;
54517;SDS011;40423;53.176;6.002;2022-11-15T03:24:46;41.58;;;22.92;;
54517;SDS011;40423;53.176;6.002;2022-11-15T03:27:16;44.45;;;23.73;;
54517;SDS011;40423;53.176;6.002;2022-11-15T03:29:47;39.60;;;22.95;;
54517;SDS011;40423;53.176;6.002;2022-11-15T03:32:26;46.38;;;24.95;;
54517;SDS011;40423;53.176;6.002;2022-11-15T03:35:02;41.03;;;22.88;;
54517;SDS011;40423;53.176;6.002;2022-11-15T03:37:33;46.17;;;24.80;;
54517;SDS011;40423;53.176;6.002;2022-11-15T03:40:04;47.28;;;25.48;;
54517;SDS011;40423;53.176;6.002;2022-11-15T03:42:31;56.28;;;26.08;;
54517;SDS011;40423;53.176;6.002;2022-11-15T03:45:29;53.90;;;25.85;;
54517;SDS011;40423;53.176;6.002;2022-11-15T03:48:10;48.10;;;25.23;;
54517;SDS011;40423;53.176;6.002;2022-11-15T03:50:42;51.30;;;25.92;;
54517;SDS011;40423;53.176;6.002;2022-11-15T03:53:08;49.63;;;26.23;;
54517;SDS011;40423;53.176;6.002;2022-11-15T03:55:34;53.50;;;24.70;;
54517;SDS011;40423;53.176;6.002;2022-11-15T03:58:00;54.33;;;26.02;;
54517;SDS011;40423;53.176;6.002;2022-11-15T04:00:27;51.25;;;26.02;;
54517;SDS011;40423;53.176;6.002;2022-11-15T04:02:53;52.35;;;26.40;;
54517;SDS011;40423;53.176;6.002;2022-11-15T04:05:18;48.53;;;24.98;;
54517;SDS011;40423;53.176;6.002;2022-11-15T04:07:44;52.13;;;25.98;;
54517;SDS011;40423;53.176;6.002;2022-11-15T04:10:10;52.50;;;25.17;;
54517;SDS011;40423;53.176;6.002;2022-11-15T04:12:38;49.53;;;26.83;;
54517;SDS011;40423;53.176;6.002;2022-11-15T04:15:11;53.75;;;25.98;;
54517;SDS011;40423;53.176;6.002;2022-11-15T04:17:39;56.67;;;26.73;;
54517;SDS011;40423;53.176;6.002;2022-11-15T04:20:08;48.92;;;24.80;;
54517;SDS011;40423;53.176;6.002;2022-11-15T04:22:57;59.25;;;28.63;;
54517;SDS011;40423;53.176;6.002;2022-11-15T04:25:57;54.90;;;25.98;;
54517;SDS011;40423;53.176;6.002;2022-11-15T04:28:25;57.30;;;25.38;;
54517;SDS011;40423;53.176;6.002;2022-11-15T04:30:50;52.65;;;25.88;;
54517;SDS011;40423;53.176;6.002;2022-11-15T04:33:16;57.42;;;25.98;;
54517;SDS011;40423;53.176;6.002;2022-11-15T04:35:42;58.13;;;26.38;;
54517;SDS011;40423;53.176;6.002;2022-11-15T04:38:09;56.80;;;27.25;;
54517;SDS011;40423;53.176;6.002;2022-11-15T04:40:36;55.05;;;26.98;;
54517;SDS011;40423;53.176;6.002;2022-11-15T04:43:03;52.30;;;27.02;;
54517;SDS011;40423;53.176;6.002;2022-11-15T04:45:29;56.53;;;26.02;;
54517;SDS011;40423;53.176;6.002;2022-11-15T04:47:55;58.90;;;27.45;;
54517;SDS011;40423;53.176;6.002;2022-11-15T04:50:21;56.53;;;27.80;;
54517;SDS011;40423;53.176;6.002;2022-11-15T04:52:50;55.13;;;24.95;;
54517;SDS011;40423;53.176;6.002;2022-11-15T04:55:17;59.60;;;29.13;;
54517;SDS011;40423;53.176;6.002;2022-11-15T04:57:43;54.03;;;26.35;;
54517;SDS011;40423;53.176;6.002;2022-11-15T05:00:10;62.88;;;28.65;;
54517;SDS011;40423;53.176;6.002;2022-11-15T05:02:37;53.03;;;26.17;;
54517;SDS011;40423;53.176;6.002;2022-11-15T05:05:27;67.82;;;28.92;;
54517;SDS011;40423;53.176;6.002;2022-11-15T05:07:52;58.35;;;27.88;;
54517;SDS011;40423;53.176;6.002;2022-11-15T05:10:18;63.03;;;30.08;;
54517;SDS011;40423;53.176;6.002;2022-11-15T05:12:44;63.13;;;30.10;;
54517;SDS011;40423;53.176;6.002;2022-11-15T05:15:11;62.85;;;29.30;;
54517;SDS011;40423;53.176;6.002;2022-11-15T05:17:36;71.93;;;30.48;;
54517;SDS011;40423;53.176;6.002;2022-11-15T05:20:02;70.10;;;30.60;;
54517;SDS011;40423;53.176;6.002;2022-11-15T05:22:28;62.17;;;30.83;;
54517;SDS011;40423;53.176;6.002;2022-11-15T05:24:54;68.28;;;30.80;;
54517;SDS011;40423;53.176;6.002;2022-11-15T05:27:19;71.53;;;33.03;;
54517;SDS011;40423;53.176;6.002;2022-11-15T05:29:45;75.28;;;32.88;;
54517;SDS011;40423;53.176;6.002;2022-11-15T05:32:11;63.35;;;29.50;;
54517;SDS011;40423;53.176;6.002;2022-11-15T05:34:37;75.25;;;34.10;;
54517;SDS011;40423;53.176;6.002;2022-11-15T05:37:03;76.50;;;34.55;;
54517;SDS011;40423;53.176;6.002;2022-11-15T05:39:30;74.28;;;32.92;;
54517;SDS011;40423;53.176;6.002;2022-11-15T05:41:57;70.88;;;30.70;;
54517;SDS011;40423;53.176;6.002;2022-11-15T05:44:33;65.53;;;32.17;;
54517;SDS011;40423;53.176;6.002;2022-11-15T05:47:01;76.32;;;34.42;;
54517;SDS011;40423;53.176;6.002;2022-11-15T05:49:29;87.78;;;36.45;;
54517;SDS011;40423;53.176;6.002;2022-11-15T05:51:58;74.45;;;34.92;;
54517;SDS011;40423;53.176;6.002;2022-11-15T05:54:25;80.45;;;36.58;;
54517;SDS011;40423;53.176;6.002;2022-11-15T05:56:51;76.28;;;35.40;;
54517;SDS011;40423;53.176;6.002;2022-11-15T05:59:17;79.78;;;37.75;;
54517;SDS011;40423;53.176;6.002;2022-11-15T06:01:43;97.93;;;38.25;;
54517;SDS011;40423;53.176;6.002;2022-11-15T06:04:09;89.38;;;37.30;;
54517;SDS011;40423;53.176;6.002;2022-11-15T06:06:35;85.13;;;38.17;;
54517;SDS011;40423;53.176;6.002;2022-11-15T06:09:00;87.90;;;39.53;;
54517;SDS011;40423;53.176;6.002;2022-11-15T06:11:26;95.70;;;40.95;;
54517;SDS011;40423;53.176;6.002;2022-11-15T06:13:52;100.43;;;41.08;;
54517;SDS011;40423;53.176;6.002;2022-11-15T06:16:18;85.72;;;38.10;;
54517;SDS011;40423;53.176;6.002;2022-11-15T06:18:43;86.25;;;38.90;;
54517;SDS011;40423;53.176;6.002;2022-11-15T06:21:09;95.95;;;39.95;;
54517;SDS011;40423;53.176;6.002;2022-11-15T06:23:35;81.18;;;39.97;;
54517;SDS011;40423;53.176;6.002;2022-11-15T06:26:01;99.38;;;42.08;;
54517;SDS011;40423;53.176;6.002;2022-11-15T06:28:28;83.70;;;37.10;;
54517;SDS011;40423;53.176;6.002;2022-11-15T06:30:55;89.10;;;38.92;;
54517;SDS011;40423;53.176;6.002;2022-11-15T06:33:22;96.68;;;38.75;;
54517;SDS011;40423;53.176;6.002;2022-11-15T06:35:47;89.45;;;40.05;;
54517;SDS011;40423;53.176;6.002;2022-11-15T06:38:13;88.93;;;39.60;;
54517;SDS011;40423;53.176;6.002;2022-11-15T06:40:39;88.28;;;40.20;;
54517;SDS011;40423;53.176;6.002;2022-11-15T06:43:05;96.75;;;41.60;;
54517;SDS011;40423;53.176;6.002;2022-11-15T06:45:31;86.13;;;39.00;;
54517;SDS011;40423;53.176;6.002;2022-11-15T06:47:57;87.40;;;41.20;;
54517;SDS011;40423;53.176;6.002;2022-11-15T06:50:23;94.20;;;40.72;;
54517;SDS011;40423;53.176;6.002;2022-11-15T06:52:49;97.47;;;40.63;;
54517;SDS011;40423;53.176;6.002;2022-11-15T06:55:15;87.43;;;40.92;;
54517;SDS011;40423;53.176;6.002;2022-11-15T06:57:48;93.80;;;42.90;;
54517;SDS011;40423;53.176;6.002;2022-11-15T07:00:18;97.25;;;41.30;;
54517;SDS011;40423;53.176;6.002;2022-11-15T07:02:45;89.72;;;38.55;;
54517;SDS011;40423;53.176;6.002;2022-11-15T07:05:11;87.63;;;40.72;;
54517;SDS011;40423;53.176;6.002;2022-11-15T07:07:37;83.25;;;39.95;;
54517;SDS011;40423;53.176;6.002;2022-11-15T07:10:03;79.63;;;38.13;;
54517;SDS011;40423;53.176;6.002;2022-11-15T07:12:30;85.25;;;40.45;;
54517;SDS011;40423;53.176;6.002;2022-11-15T07:14:55;95.07;;;42.17;;
54517;SDS011;40423;53.176;6.002;2022-11-15T07:17:21;91.35;;;40.90;;
54517;SDS011;40423;53.176;6.002;2022-11-15T07:19:46;97.18;;;41.13;;
54517;SDS011;40423;53.176;6.002;2022-11-15T07:22:12;80.22;;;40.25;;
54517;SDS011;40423;53.176;6.002;2022-11-15T07:24:38;90.13;;;40.70;;
54517;SDS011;40423;53.176;6.002;2022-11-15T07:27:04;85.57;;;41.60;;
54517;SDS011;40423;53.176;6.002;2022-11-15T07:29:29;92.18;;;40.60;;
54517;SDS011;40423;53.176;6.002;2022-11-15T07:31:55;84.03;;;41.13;;
54517;SDS011;40423;53.176;6.002;2022-11-15T07:34:21;90.85;;;40.88;;
54517;SDS011;40423;53.176;6.002;2022-11-15T07:36:47;84.43;;;38.80;;
54517;SDS011;40423;53.176;6.002;2022-11-15T07:39:21;74.07;;;39.92;;
54517;SDS011;40423;53.176;6.002;2022-11-15T07:41:46;76.90;;;38.28;;
54517;SDS011;40423;53.176;6.002;2022-11-15T07:44:14;82.60;;;40.47;;
54517;SDS011;40423;53.176;6.002;2022-11-15T07:46:40;83.75;;;39.45;;
54517;SDS011;40423;53.176;6.002;2022-11-15T07:49:05;70.93;;;36.75;;
54517;SDS011;40423;53.176;6.002;2022-11-15T07:51:31;73.25;;;37.25;;
54517;SDS011;40423;53.176;6.002;2022-11-15T07:53:57;75.32;;;39.38;;
54517;SDS011;40423;53.176;6.002;2022-11-15T07:56:22;75.85;;;38.92;;
54517;SDS011;40423;53.176;6.002;2022-11-15T07:58:48;68.97;;;36.83;;
54517;SDS011;40423;53.176;6.002;2022-11-15T08:01:15;66.70;;;36.40;;
54517;SDS011;40423;53.176;6.002;2022-11-15T08:03:40;67.40;;;36.28;;
54517;SDS011;40423;53.176;6.002;2022-11-15T08:06:06;71.65;;;38.13;;
54517;SDS011;40423;53.176;6.002;2022-11-15T08:08:32;69.20;;;37.70;;
54517;SDS011;40423;53.176;6.002;2022-11-15T08:10:58;64.35;;;35.63;;
54517;SDS011;40423;53.176;6.002;2022-11-15T08:13:24;58.05;;;34.97;;
54517;SDS011;40423;53.176;6.002;2022-11-15T08:15:50;60.72;;;34.92;;
54517;SDS011;40423;53.176;6.002;2022-11-15T08:18:16;58.63;;;34.70;;
54517;SDS011;40423;53.176;6.002;2022-11-15T08:20:42;55.97;;;34.78;;
54517;SDS011;40423;53.176;6.002;2022-11-15T08:23:09;62.42;;;35.33;;
54517;SDS011;40423;53.176;6.002;2022-11-15T08:25:36;61.83;;;35.15;;
54517;SDS011;40423;53.176;6.002;2022-11-15T08:28:03;59.10;;;33.35;;
54517;SDS011;40423;53.176;6.002;2022-11-15T08:30:33;55.25;;;34.13;;
54517;SDS011;40423;53.176;6.002;2022-11-15T08:33:01;55.20;;;34.33;;
54517;SDS011;40423;53.176;6.002;2022-11-15T08:35:27;55.53;;;34.17;;
54517;SDS011;40423;53.176;6.002;2022-11-15T08:37:53;58.13;;;33.78;;
54517;SDS011;40423;53.176;6.002;2022-11-15T08:40:19;54.80;;;33.40;;
54517;SDS011;40423;53.176;6.002;2022-11-15T08:42:45;59.10;;;33.80;;
54517;SDS011;40423;53.176;6.002;2022-11-15T08:45:12;55.20;;;33.28;;
54517;SDS011;40423;53.176;6.002;2022-11-15T08:47:38;54.30;;;33.88;;
54517;SDS011;40423;53.176;6.002;2022-11-15T08:50:04;56.50;;;33.15;;
54517;SDS011;40423;53.176;6.002;2022-11-15T08:52:30;56.47;;;32.50;;
54517;SDS011;40423;53.176;6.002;2022-11-15T08:54:56;54.67;;;33.25;;
54517;SDS011;40423;53.176;6.002;2022-11-15T08:57:22;54.80;;;32.67;;
54517;SDS011;40423;53.176;6.002;2022-11-15T08:59:48;52.05;;;32.72;;
54517;SDS011;40423;53.176;6.002;2022-11-15T09:02:14;50.88;;;32.42;;
54517;SDS011;40423;53.176;6.002;2022-11-15T09:04:41;56.42;;;33.08;;
54517;SDS011;40423;53.176;6.002;2022-11-15T09:07:08;55.75;;;31.65;;
54517;SDS011;40423;53.176;6.002;2022-11-15T09:09:37;52.17;;;31.02;;
54517;SDS011;40423;53.176;6.002;2022-11-15T09:12:03;50.72;;;31.23;;
54517;SDS011;40423;53.176;6.002;2022-11-15T09:14:30;50.90;;;30.35;;
54517;SDS011;40423;53.176;6.002;2022-11-15T09:16:56;53.47;;;31.13;;
54517;SDS011;40423;53.176;6.002;2022-11-15T09:19:23;50.05;;;30.55;;
54517;SDS011;40423;53.176;6.002;2022-11-15T09:21:49;45.30;;;28.17;;
54517;SDS011;40423;53.176;6.002;2022-11-15T09:24:14;43.90;;;28.75;;
54517;SDS011;40423;53.176;6.002;2022-11-15T09:26:40;41.75;;;28.48;;
54517;SDS011;40423;53.176;6.002;2022-11-15T09:29:06;42.50;;;28.45;;
54517;SDS011;40423;53.176;6.002;2022-11-15T09:31:32;42.67;;;28.17;;
54517;SDS011;40423;53.176;6.002;2022-11-15T09:33:58;44.55;;;29.00;;
54517;SDS011;40423;53.176;6.002;2022-11-15T09:36:23;38.40;;;26.77;;
54517;SDS011;40423;53.176;6.002;2022-11-15T09:38:49;44.17;;;27.40;;
54517;SDS011;40423;53.176;6.002;2022-11-15T09:44:21;41.85;;;26.90;;
54517;SDS011;40423;53.176;6.002;2022-11-15T09:49:52;45.65;;;27.73;;
54517;SDS011;40423;53.176;6.002;2022-11-15T09:52:22;38.38;;;25.60;;
54517;SDS011;40423;53.176;6.002;2022-11-15T09:54:49;43.45;;;27.70;;
54517;SDS011;40423;53.176;6.002;2022-11-15T10:05:13;43.67;;;28.55;;
54517;SDS011;40423;53.176;6.002;2022-11-15T10:07:49;42.53;;;25.90;;
54517;SDS011;40423;53.176;6.002;2022-11-15T10:10:39;38.85;;;25.38;;
54517;SDS011;40423;53.176;6.002;2022-11-15T10:13:28;36.50;;;25.90;;
54517;SDS011;40423;53.176;6.002;2022-11-15T10:16:14;42.13;;;26.42;;
54517;SDS011;40423;53.176;6.002;2022-11-15T10:19:10;35.97;;;24.60;;
54517;SDS011;40423;53.176;6.002;2022-11-15T10:21:54;36.15;;;24.90;;
54517;SDS011;40423;53.176;6.002;2022-11-15T10:24:41;35.67;;;24.80;;
54517;SDS011;40423;53.176;6.002;2022-11-15T10:27:15;33.45;;;23.92;;
54517;SDS011;40423;53.176;6.002;2022-11-15T10:29:46;36.00;;;24.40;;
54517;SDS011;40423;53.176;6.002;2022-11-15T10:32:14;36.97;;;24.63;;
54517;SDS011;40423;53.176;6.002;2022-11-15T10:34:45;37.80;;;23.83;;
54517;SDS011;40423;53.176;6.002;2022-11-15T10:37:11;31.35;;;23.15;;
54517;SDS011;40423;53.176;6.002;2022-11-15T10:39:37;33.65;;;22.52;;
54517;SDS011;40423;53.176;6.002;2022-11-15T10:42:25;36.88;;;22.60;;
54517;SDS011;40423;53.176;6.002;2022-11-15T10:44:53;35.65;;;21.70;;
54517;SDS011;40423;53.176;6.002;2022-11-15T10:47:26;31.80;;;22.23;;
54517;SDS011;40423;53.176;6.002;2022-11-15T10:49:57;32.70;;;21.25;;
54517;SDS011;40423;53.176;6.002;2022-11-15T10:52:24;31.13;;;20.52;;
54517;SDS011;40423;53.176;6.002;2022-11-15T10:54:56;35.58;;;21.02;;
54517;SDS011;40423;53.176;6.002;2022-11-15T10:57:22;28.77;;;20.77;;
54517;SDS011;40423;53.176;6.002;2022-11-15T10:59:53;26.08;;;19.10;;
54517;SDS011;40423;53.176;6.002;2022-11-15T11:02:35;33.60;;;20.30;;
54517;SDS011;40423;53.176;6.002;2022-11-15T11:05:07;34.78;;;19.13;;
54517;SDS011;40423;53.176;6.002;2022-11-15T11:08:09;30.73;;;18.73;;
54517;SDS011;40423;53.176;6.002;2022-11-15T11:10:55;26.15;;;19.27;;
54517;SDS011;40423;53.176;6.002;2022-11-15T11:13:24;26.00;;;18.20;;
54517;SDS011;40423;53.176;6.002;2022-11-15T11:21:57;27.55;;;17.70;;
54517;SDS011;40423;53.176;6.002;2022-11-15T11:24:47;23.17;;;17.20;;
54517;SDS011;40423;53.176;6.002;2022-11-15T11:30:10;24.40;;;17.48;;
54517;SDS011;40423;53.176;6.002;2022-11-15T11:32:49;21.63;;;16.52;;
54517;SDS011;40423;53.176;6.002;2022-11-15T11:35:30;23.45;;;16.85;;
54517;SDS011;40423;53.176;6.002;2022-11-15T11:38:47;21.20;;;15.63;;
54517;SDS011;40423;53.176;6.002;2022-11-15T11:48:48;21.13;;;13.80;;
54517;SDS011;40423;53.176;6.002;2022-11-15T11:51:43;18.65;;;12.95;;
54517;SDS011;40423;53.176;6.002;2022-11-15T11:54:17;16.98;;;12.70;;
54517;SDS011;40423;53.176;6.002;2022-11-15T11:56:51;17.13;;;11.45;;
54517;SDS011;40423;53.176;6.002;2022-11-15T12:02:00;18.42;;;11.00;;
54517;SDS011;40423;53.176;6.002;2022-11-15T12:04:38;13.82;;;10.25;;
54517;SDS011;40423;53.176;6.002;2022-11-15T12:07:08;15.98;;;10.35;;
54517;SDS011;40423;53.176;6.002;2022-11-15T12:09:51;15.68;;;10.68;;
54517;SDS011;40423;53.176;6.002;2022-11-15T12:12:42;15.35;;;10.05;;
54517;SDS011;40423;53.176;6.002;2022-11-15T12:15:27;12.15;;;8.48;;
54517;SDS011;40423;53.176;6.002;2022-11-15T12:17:57;12.25;;;8.93;;
54517;SDS011;40423;53.176;6.002;2022-11-15T12:20:29;14.13;;;8.10;;
54517;SDS011;40423;53.176;6.002;2022-11-15T12:23:01;14.93;;;8.95;;
54517;SDS011;40423;53.176;6.002;2022-11-15T12:28:28;14.27;;;8.63;;
54517;SDS011;40423;53.176;6.002;2022-11-15T12:34:00;12.32;;;7.93;;
54517;SDS011;40423;53.176;6.002;2022-11-15T12:36:39;10.82;;;8.07;;
54517;SDS011;40423;53.176;6.002;2022-11-15T12:39:08;12.75;;;8.15;;
54517;SDS011;40423;53.176;6.002;2022-11-15T12:41:38;12.27;;;7.32;;
54517;SDS011;40423;53.176;6.002;2022-11-15T12:44:10;10.95;;;7.35;;
54517;SDS011;40423;53.176;6.002;2022-11-15T12:59:52;8.15;;;5.95;;
54517;SDS011;40423;53.176;6.002;2022-11-15T13:17:42;6.75;;;4.10;;
54517;SDS011;40423;53.176;6.002;2022-11-15T13:30:37;5.15;;;3.47;;
54517;SDS011;40423;53.176;6.002;2022-11-15T13:33:13;5.88;;;3.50;;
54517;SDS011;40423;53.176;6.002;2022-11-15T13:35:49;5.75;;;3.50;;
54517;SDS011;40423;53.176;6.002;2022-11-15T13:38:28;5.25;;;3.35;;
54517;SDS011;40423;53.176;6.002;2022-11-15T13:40:56;5.45;;;3.13;;
54517;SDS011;40423;53.176;6.002;2022-11-15T13:48:51;6.45;;;3.75;;
54517;SDS011;40423;53.176;6.002;2022-11-15T13:56:44;6.85;;;3.35;;
54517;SDS011;40423;53.176;6.002;2022-11-15T14:01:51;5.13;;;3.28;;
54517;SDS011;40423;53.176;6.002;2022-11-15T14:04:21;5.88;;;3.00;;
54517;SDS011;40423;53.176;6.002;2022-11-15T14:06:49;4.10;;;2.85;;
54517;SDS011;40423;53.176;6.002;2022-11-15T14:09:31;4.18;;;2.97;;
54517;SDS011;40423;53.176;6.002;2022-11-15T14:18:38;5.07;;;2.70;;
54517;SDS011;40423;53.176;6.002;2022-11-15T14:21:09;5.50;;;2.92;;
54517;SDS011;40423;53.176;6.002;2022-11-15T14:23:35;6.55;;;2.78;;
54517;SDS011;40423;53.176;6.002;2022-11-15T14:26:01;5.13;;;2.47;;
54517;SDS011;40423;53.176;6.002;2022-11-15T14:28:28;4.32;;;2.75;;
54517;SDS011;40423;53.176;6.002;2022-11-15T14:33:32;4.97;;;2.40;;
54517;SDS011;40423;53.176;6.002;2022-11-15T14:36:10;5.93;;;2.42;;
54517;SDS011;40423;53.176;6.002;2022-11-15T14:38:36;5.70;;;2.53;;
54517;SDS011;40423;53.176;6.002;2022-11-15T14:41:01;4.45;;;2.10;;
54517;SDS011;40423;53.176;6.002;2022-11-15T14:43:27;5.78;;;2.22;;
54517;SDS011;40423;53.176;6.002;2022-11-15T14:45:53;5.35;;;2.72;;
54517;SDS011;40423;53.176;6.002;2022-11-15T14:48:19;3.38;;;2.13;;
54517;SDS011;40423;53.176;6.002;2022-11-15T14:50:45;4.95;;;2.50;;
54517;SDS011;40423;53.176;6.002;2022-11-15T14:53:14;5.65;;;2.90;;
54517;SDS011;40423;53.176;6.002;2022-11-15T14:55:42;6.97;;;2.80;;
54517;SDS011;40423;53.176;6.002;2022-11-15T14:58:08;5.15;;;2.55;;
54517;SDS011;40423;53.176;6.002;2022-11-15T15:00:38;6.60;;;2.63;;
54517;SDS011;40423;53.176;6.002;2022-11-15T15:03:05;6.03;;;2.70;;
54517;SDS011;40423;53.176;6.002;2022-11-15T15:05:33;4.70;;;2.25;;
54517;SDS011;40423;53.176;6.002;2022-11-15T15:08:04;4.18;;;2.67;;
54517;SDS011;40423;53.176;6.002;2022-11-15T15:10:35;5.13;;;2.22;;
54517;SDS011;40423;53.176;6.002;2022-11-15T15:13:05;7.20;;;1.90;;
54517;SDS011;40423;53.176;6.002;2022-11-15T15:15:36;6.82;;;1.98;;
54517;SDS011;40423;53.176;6.002;2022-11-15T15:18:05;4.10;;;1.95;;
54517;SDS011;40423;53.176;6.002;2022-11-15T15:20:34;4.70;;;1.90;;
54517;SDS011;40423;53.176;6.002;2022-11-15T15:23:02;6.78;;;2.10;;
54517;SDS011;40423;53.176;6.002;2022-11-15T15:25:29;5.18;;;2.08;;
54517;SDS011;40423;53.176;6.002;2022-11-15T15:27:57;5.03;;;2.10;;
54517;SDS011;40423;53.176;6.002;2022-11-15T15:30:24;3.60;;;1.88;;
54517;SDS011;40423;53.176;6.002;2022-11-15T15:32:50;3.60;;;2.10;;
54517;SDS011;40423;53.176;6.002;2022-11-15T15:35:17;4.38;;;2.15;;
54517;SDS011;40423;53.176;6.002;2022-11-15T15:37:43;3.78;;;2.10;;
54517;SDS011;40423;53.176;6.002;2022-11-15T15:40:12;6.88;;;1.80;;
54517;SDS011;40423;53.176;6.002;2022-11-15T15:42:46;4.03;;;2.08;;
54517;SDS011;40423;53.176;6.002;2022-11-15T15:45:12;5.20;;;2.35;;
54517;SDS011;40423;53.176;6.002;2022-11-15T15:47:38;4.93;;;2.17;;
54517;SDS011;40423;53.176;6.002;2022-11-15T15:50:12;4.72;;;2.10;;
54517;SDS011;40423;53.176;6.002;2022-11-15T15:52:42;6.47;;;1.98;;
54517;SDS011;40423;53.176;6.002;2022-11-15T15:55:08;4.90;;;2.08;;
54517;SDS011;40423;53.176;6.002;2022-11-15T15:57:35;3.75;;;1.60;;
54517;SDS011;40423;53.176;6.002;2022-11-15T16:00:01;4.15;;;2.10;;
54517;SDS011;40423;53.176;6.002;2022-11-15T16:02:28;5.38;;;2.00;;
54517;SDS011;40423;53.176;6.002;2022-11-15T16:04:53;3.90;;;1.90;;
54517;SDS011;40423;53.176;6.002;2022-11-15T16:07:21;5.22;;;2.45;;
54517;SDS011;40423;53.176;6.002;2022-11-15T16:09:49;5.38;;;2.13;;
54517;SDS011;40423;53.176;6.002;2022-11-15T16:14:54;6.93;;;2.70;;
54517;SDS011;40423;53.176;6.002;2022-11-15T16:17:20;4.75;;;2.92;;
54517;SDS011;40423;53.176;6.002;2022-11-15T16:19:47;6.63;;;3.20;;
54517;SDS011;40423;53.176;6.002;2022-11-15T16:22:13;6.50;;;3.53;;
54517;SDS011;40423;53.176;6.002;2022-11-15T16:24:39;5.30;;;3.22;;
54517;SDS011;40423;53.176;6.002;2022-11-15T16:27:04;5.57;;;3.25;;
54517;SDS011;40423;53.176;6.002;2022-11-15T16:29:30;8.52;;;4.63;;
54517;SDS011;40423;53.176;6.002;2022-11-15T16:31:56;4.78;;;3.50;;
54517;SDS011;40423;53.176;6.002;2022-11-15T16:34:22;7.30;;;4.18;;
54517;SDS011;40423;53.176;6.002;2022-11-15T16:36:47;6.03;;;3.80;;
54517;SDS011;40423;53.176;6.002;2022-11-15T16:39:13;6.93;;;4.68;;
54517;SDS011;40423;53.176;6.002;2022-11-15T16:41:42;8.45;;;4.28;;
54517;SDS011;40423;53.176;6.002;2022-11-15T16:44:11;6.38;;;4.60;;
54517;SDS011;40423;53.176;6.002;2022-11-15T16:46:38;9.77;;;4.82;;
54517;SDS011;40423;53.176;6.002;2022-11-15T16:49:11;6.63;;;5.00;;
54517;SDS011;40423;53.176;6.002;2022-11-15T16:51:38;10.00;;;5.53;;